createdAt,value
2019-03-01T00:05:47.662Z,98053.00
2019-03-01T00:13:01.820Z,98050.23
2019-03-01T00:20:25.789Z,98046.88
2019-03-01T00:27:51.772Z,98041.50
2019-03-01T00:34:52.566Z,98035.17
2019-03-01T00:42:05.110Z,98022.98
2019-03-01T00:48:20.709Z,98025.14
2019-03-01T00:54:46.563Z,98012.58
2019-03-01T01:01:25.517Z,98019.59
2019-03-01T01:07:55.578Z,98009.16
2019-03-01T01:14:22.402Z,98000.70
2019-03-01T01:21:01.355Z,97992.11
2019-03-01T01:27:28.991Z,97987.38
2019-03-01T01:33:58.522Z,97971.40
2019-03-01T01:40:26.830Z,97973.03
2019-03-01T01:46:58.413Z,97970.42
2019-03-01T01:53:26.620Z,97962.27
2019-03-01T01:59:54.220Z,97955.74
2019-03-01T02:06:40.474Z,97944.08
2019-03-01T02:13:08.311Z,97935.64
2019-03-01T02:19:35.934Z,97924.42
2019-03-01T02:26:14.888Z,97922.34
2019-03-01T02:32:50.075Z,97916.00
2019-03-01T02:39:20.884Z,97904.45
2019-03-01T02:45:11.136Z,97898.42
2019-03-01T02:51:37.803Z,97885.88
2019-03-01T02:58:16.761Z,97879.89
2019-03-01T03:04:42.951Z,97869.16
2019-03-01T03:11:08.776Z,97861.19
2019-03-01T03:17:46.608Z,97852.47
2019-03-01T03:24:13.546Z,97837.02
2019-03-01T03:30:41.166Z,97834.14
2019-03-01T03:37:11.928Z,97828.92
2019-03-01T03:43:53.224Z,97822.23
2019-03-01T03:50:10.981Z,97816.16
2019-03-01T03:56:38.496Z,97817.63
2019-03-01T04:03:15.733Z,97814.58
2019-03-01T04:09:44.583Z,97812.47
2019-03-01T04:16:09.158Z,97808.22
2019-03-01T04:22:48.111Z,97803.66
2019-03-01T04:29:13.955Z,97790.30
2019-03-01T04:35:40.995Z,97782.14
2019-03-01T04:42:06.811Z,97782.14
2019-03-01T04:51:41.502Z,97793.36
2019-03-01T04:58:22.155Z,97787.03
2019-03-01T05:04:51.322Z,97783.29
2019-03-01T05:11:15.904Z,97780.23
2019-03-01T05:17:41.758Z,97778.00
2019-03-01T05:24:18.661Z,97773.33
2019-03-01T05:30:42.473Z,97765.33
2019-03-01T05:37:09.134Z,97764.03
2019-03-01T05:43:48.463Z,97765.22
2019-03-01T05:53:55.953Z,97768.52
2019-03-01T06:00:23.312Z,97766.00
2019-03-01T06:08:17.005Z,97764.86
2019-03-01T06:15:43.010Z,97762.63
2019-03-01T06:23:05.380Z,97762.63
2019-03-01T06:30:30.691Z,97764.16
2019-03-01T06:37:43.492Z,97767.06
2019-03-01T06:44:57.799Z,97765.95
2019-03-01T06:55:14.900Z,97763.84
2019-03-01T07:05:26.578Z,97757.82
2019-03-01T07:11:52.784Z,97769.91
2019-03-01T07:18:29.714Z,97766.33
2019-03-01T07:24:55.534Z,97778.34
2019-03-01T07:31:23.373Z,97778.30
2019-03-01T07:38:00.300Z,97787.75
2019-03-01T07:44:27.894Z,97786.56
2019-03-01T07:51:14.163Z,97802.66
2019-03-01T07:57:36.800Z,97805.58
2019-03-01T08:04:14.658Z,97814.83
2019-03-01T08:10:49.806Z,97821.47
2019-03-01T08:17:15.234Z,97828.31
2019-03-01T08:23:41.446Z,97834.34
2019-03-01T08:30:10.273Z,97839.35
2019-03-01T08:36:38.674Z,97840.94
2019-03-01T08:43:12.013Z,97844.97
2019-03-01T08:49:35.833Z,97843.18
2019-03-01T08:55:52.123Z,97856.86
2019-03-01T09:02:19.055Z,97858.05
2019-03-01T09:08:58.838Z,97862.48
2019-03-01T09:15:26.182Z,97863.58
2019-03-01T09:21:51.756Z,97875.56
2019-03-01T09:28:22.524Z,97874.54
2019-03-01T09:34:24.203Z,97878.66
2019-03-01T09:40:50.056Z,97887.48
2019-03-01T09:47:18.769Z,97891.19
2019-03-01T09:57:41.281Z,97897.80
2019-03-01T10:04:17.873Z,97919.79
2019-03-01T10:10:44.038Z,97926.42
2019-03-01T10:17:07.833Z,97929.64
2019-03-01T10:23:33.660Z,97927.79
2019-03-01T10:30:20.524Z,97933.69
2019-03-01T10:36:49.534Z,97945.14
2019-03-01T10:43:17.138Z,97949.70
2019-03-01T10:49:58.141Z,97955.98
2019-03-01T10:59:47.987Z,97973.53
2019-03-01T11:06:11.779Z,97979.84
2019-03-01T11:12:45.819Z,97983.68
2019-03-01T11:19:17.761Z,97988.95
2019-03-01T11:25:56.359Z,97990.91
2019-03-01T11:32:22.539Z,97999.56
2019-03-01T11:38:48.357Z,98005.28
2019-03-01T11:45:29.885Z,98006.54
2019-03-01T11:51:56.966Z,98017.02
2019-03-01T12:01:58.112Z,98020.98
2019-03-01T12:08:25.764Z,98022.61
2019-03-01T12:14:32.352Z,98017.19
2019-03-01T12:21:15.413Z,98008.81
2019-03-01T12:27:44.433Z,98013.37
2019-03-01T12:34:10.250Z,98016.25
2019-03-01T12:40:47.175Z,98014.50
2019-03-01T12:47:16.828Z,98018.97
2019-03-01T12:53:40.629Z,98026.56
2019-03-01T13:03:09.233Z,98052.58
2019-03-01T13:09:37.067Z,98068.14
2019-03-01T13:15:37.874Z,98078.02
2019-03-01T13:22:08.743Z,98077.66
2019-03-01T13:28:33.317Z,98074.04
2019-03-01T13:34:59.169Z,98074.95
2019-03-01T13:41:38.127Z,98065.63
2019-03-01T13:48:03.297Z,98070.03
2019-03-01T13:54:28.591Z,98061.65
2019-03-01T14:04:45.058Z,98077.14
2019-03-01T14:11:23.536Z,98091.78
2019-03-01T14:17:16.267Z,98098.47
2019-03-01T14:23:42.126Z,98099.22
2019-03-01T14:30:08.786Z,98117.81
2019-03-01T14:36:49.789Z,98130.27
2019-03-01T14:43:20.298Z,98139.08
2019-03-01T14:49:45.589Z,98141.66
2019-03-01T14:56:39.707Z,98150.11
2019-03-01T15:06:29.540Z,98148.56
2019-03-01T15:13:09.314Z,98155.91
2019-03-01T15:19:37.534Z,98160.00
2019-03-01T15:26:05.371Z,98156.39
2019-03-01T15:32:44.324Z,98164.11
2019-03-01T15:39:12.166Z,98162.34
2019-03-01T15:45:43.033Z,98156.91
2019-03-01T15:52:13.865Z,98165.39
2019-03-01T15:58:55.382Z,98179.58
2019-03-01T16:09:11.780Z,98174.69
2019-03-01T16:15:38.920Z,98171.83
2019-03-01T16:22:10.696Z,98185.88
2019-03-01T16:28:47.623Z,98191.55
2019-03-01T16:35:16.613Z,98188.95
2019-03-01T16:41:42.783Z,98196.44
2019-03-01T16:48:10.134Z,98202.30
2019-03-01T16:54:54.761Z,98201.85
2019-03-01T17:01:26.028Z,98209.00
2019-03-01T17:11:44.601Z,98221.44
2019-03-01T17:17:38.495Z,98239.91
2019-03-01T17:24:18.269Z,98251.78
2019-03-01T17:30:46.698Z,98256.65
2019-03-01T17:37:14.064Z,98260.09
2019-03-01T17:43:44.008Z,98262.07
2019-03-01T17:50:31.177Z,98257.36
2019-03-01T17:57:01.516Z,98283.92
2019-03-01T18:03:26.848Z,98291.27
2019-03-01T18:10:05.519Z,98294.36
2019-03-01T18:15:54.897Z,98312.97
2019-03-01T18:22:26.601Z,98320.63
2019-03-01T18:29:00.908Z,98327.80
2019-03-01T18:35:23.832Z,98333.50
2019-03-01T18:41:51.679Z,98335.15
2019-03-01T18:48:17.264Z,98340.22
2019-03-01T18:54:43.135Z,98349.06
2019-03-01T19:01:16.204Z,98350.66
2019-03-01T19:07:47.074Z,98344.32
2019-03-01T19:17:50.855Z,98370.25
2019-03-01T19:24:33.038Z,98368.47
2019-03-01T19:31:11.638Z,98379.87
2019-03-01T19:37:50.935Z,98385.27
2019-03-01T19:44:25.671Z,98389.98
2019-03-01T19:50:58.427Z,98396.98
2019-03-01T19:57:26.167Z,98389.98
2019-03-01T20:00:28.035Z,98398.94
2019-03-01T20:07:07.329Z,98398.94
2019-03-01T20:13:36.177Z,98390.14
2019-03-01T20:20:04.023Z,98398.27
2019-03-01T20:26:28.641Z,98396.48
2019-03-01T20:32:58.586Z,98411.92
2019-03-01T20:38:48.791Z,98418.61
2019-03-01T20:45:25.834Z,98416.00
2019-03-01T20:51:49.514Z,98414.36
2019-03-01T20:58:19.748Z,98410.30
2019-03-01T21:08:33.452Z,98418.11
2019-03-01T21:15:03.063Z,98426.23
2019-03-01T21:21:28.912Z,98432.27
2019-03-01T21:28:10.253Z,98440.55
2019-03-01T21:34:47.162Z,98433.20
2019-03-01T21:41:33.431Z,98431.69
2019-03-01T21:48:12.375Z,98427.73
2019-03-01T21:54:40.212Z,98437.75
2019-03-01T22:01:06.022Z,98432.30
2019-03-01T22:07:01.831Z,98437.44
2019-03-01T22:13:27.397Z,98436.98
2019-03-01T22:19:57.943Z,98437.58
2019-03-01T22:26:24.066Z,98441.14
2019-03-01T22:33:00.708Z,98442.78
2019-03-01T22:38:55.502Z,98447.02
2019-03-01T22:45:28.237Z,98452.52
2019-03-01T22:51:55.234Z,98451.40
2019-03-01T22:58:24.084Z,98455.66
2019-03-01T23:04:51.520Z,98457.12
2019-03-01T23:14:53.641Z,98448.06
2019-03-01T23:21:19.497Z,98443.05
2019-03-01T23:27:43.296Z,98435.08
2019-03-01T23:34:10.322Z,98436.38
2019-03-01T23:40:00.997Z,98429.89
2019-03-01T23:46:31.677Z,98419.48
2019-03-01T23:52:58.772Z,98417.85
2019-03-01T23:59:35.426Z,98417.53
